sensor_id;sensor_type;location;lat;lon;timestamp;P1;durP1;ratioP1;P2;durP2;ratioP2
28483;SDS011;15704;48.834;8.736;2022-08-18T00:05:06;5.43;;;4.32;;
28483;SDS011;15704;48.834;8.736;2022-08-18T00:08:55;6.68;;;4.47;;
28483;SDS011;15704;48.834;8.736;2022-08-18T00:12:39;6.15;;;4.50;;
28483;SDS011;15704;48.834;8.736;2022-08-18T00:16:22;6.63;;;4.82;;
28483;SDS011;15704;48.834;8.736;2022-08-18T00:20:08;6.55;;;4.55;;
28483;SDS011;15704;48.834;8.736;2022-08-18T00:23:53;6.72;;;4.70;;
28483;SDS011;15704;48.834;8.736;2022-08-18T00:27:36;6.07;;;4.80;;
28483;SDS011;15704;48.834;8.736;2022-08-18T00:31:19;6.47;;;4.78;;
28483;SDS011;15704;48.834;8.736;2022-08-18T00:35:08;7.88;;;5.63;;
28483;SDS011;15704;48.834;8.736;2022-08-18T00:38:53;6.35;;;5.07;;
28483;SDS011;15704;48.834;8.736;2022-08-18T00:42:39;7.05;;;4.97;;
28483;SDS011;15704;48.834;8.736;2022-08-18T00:46:26;5.53;;;4.88;;
28483;SDS011;15704;48.834;8.736;2022-08-18T00:50:13;6.55;;;5.07;;
28483;SDS011;15704;48.834;8.736;2022-08-18T00:54:00;9.45;;;5.13;;
28483;SDS011;15704;48.834;8.736;2022-08-18T00:57:47;7.45;;;5.07;;
28483;SDS011;15704;48.834;8.736;2022-08-18T01:01:33;8.32;;;5.00;;
28483;SDS011;15704;48.834;8.736;2022-08-18T01:05:20;8.27;;;5.47;;
28483;SDS011;15704;48.834;8.736;2022-08-18T01:09:08;7.30;;;5.38;;
28483;SDS011;15704;48.834;8.736;2022-08-18T01:16:34;7.25;;;5.70;;
28483;SDS011;15704;48.834;8.736;2022-08-18T01:20:39;8.90;;;5.47;;
28483;SDS011;15704;48.834;8.736;2022-08-18T01:24:41;8.70;;;5.30;;
28483;SDS011;15704;48.834;8.736;2022-08-18T01:28:42;8.88;;;5.82;;
28483;SDS011;15704;48.834;8.736;2022-08-18T01:32:26;8.77;;;6.03;;
28483;SDS011;15704;48.834;8.736;2022-08-18T01:36:10;9.43;;;5.82;;
28483;SDS011;15704;48.834;8.736;2022-08-18T01:39:55;7.57;;;5.70;;
28483;SDS011;15704;48.834;8.736;2022-08-18T01:43:58;7.80;;;5.70;;
28483;SDS011;15704;48.834;8.736;2022-08-18T01:47:42;9.85;;;5.88;;
28483;SDS011;15704;48.834;8.736;2022-08-18T01:51:29;8.10;;;5.90;;
28483;SDS011;15704;48.834;8.736;2022-08-18T01:55:22;8.03;;;5.57;;
28483;SDS011;15704;48.834;8.736;2022-08-18T01:59:06;8.75;;;6.10;;
28483;SDS011;15704;48.834;8.736;2022-08-18T02:02:54;6.90;;;5.95;;
28483;SDS011;15704;48.834;8.736;2022-08-18T02:06:43;9.27;;;6.25;;
28483;SDS011;15704;48.834;8.736;2022-08-18T02:10:29;10.38;;;6.07;;
28483;SDS011;15704;48.834;8.736;2022-08-18T02:14:11;8.35;;;5.60;;
28483;SDS011;15704;48.834;8.736;2022-08-18T02:17:54;8.20;;;5.97;;
28483;SDS011;15704;48.834;8.736;2022-08-18T02:21:37;5.97;;;4.88;;
28483;SDS011;15704;48.834;8.736;2022-08-18T02:25:20;8.07;;;5.50;;
28483;SDS011;15704;48.834;8.736;2022-08-18T02:29:04;7.97;;;5.28;;
28483;SDS011;15704;48.834;8.736;2022-08-18T02:32:47;6.97;;;5.30;;
28483;SDS011;15704;48.834;8.736;2022-08-18T02:36:30;7.72;;;5.35;;
28483;SDS011;15704;48.834;8.736;2022-08-18T02:40:13;7.53;;;5.15;;
28483;SDS011;15704;48.834;8.736;2022-08-18T02:43:56;9.45;;;5.68;;
28483;SDS011;15704;48.834;8.736;2022-08-18T02:47:41;8.38;;;5.97;;
28483;SDS011;15704;48.834;8.736;2022-08-18T02:51:24;10.07;;;5.25;;
28483;SDS011;15704;48.834;8.736;2022-08-18T02:55:07;7.00;;;5.55;;
28483;SDS011;15704;48.834;8.736;2022-08-18T02:58:53;8.07;;;6.20;;
28483;SDS011;15704;48.834;8.736;2022-08-18T03:02:37;8.55;;;6.03;;
28483;SDS011;15704;48.834;8.736;2022-08-18T03:06:24;7.55;;;5.93;;
28483;SDS011;15704;48.834;8.736;2022-08-18T03:10:08;8.70;;;5.53;;
28483;SDS011;15704;48.834;8.736;2022-08-18T03:14:10;7.80;;;6.22;;
28483;SDS011;15704;48.834;8.736;2022-08-18T03:17:54;8.15;;;6.22;;
28483;SDS011;15704;48.834;8.736;2022-08-18T03:21:39;8.85;;;5.90;;
28483;SDS011;15704;48.834;8.736;2022-08-18T03:25:25;6.57;;;5.28;;
28483;SDS011;15704;48.834;8.736;2022-08-18T03:29:08;8.95;;;6.28;;
28483;SDS011;15704;48.834;8.736;2022-08-18T03:32:51;6.55;;;4.85;;
28483;SDS011;15704;48.834;8.736;2022-08-18T03:36:35;7.20;;;5.82;;
28483;SDS011;15704;48.834;8.736;2022-08-18T03:44:01;12.27;;;5.88;;
28483;SDS011;15704;48.834;8.736;2022-08-18T03:47:44;6.45;;;5.63;;
28483;SDS011;15704;48.834;8.736;2022-08-18T03:51:28;7.85;;;5.70;;
28483;SDS011;15704;48.834;8.736;2022-08-18T03:55:13;8.52;;;5.95;;
28483;SDS011;15704;48.834;8.736;2022-08-18T03:58:57;9.88;;;5.55;;
28483;SDS011;15704;48.834;8.736;2022-08-18T04:02:41;7.82;;;5.78;;
28483;SDS011;15704;48.834;8.736;2022-08-18T04:06:26;9.93;;;5.82;;
28483;SDS011;15704;48.834;8.736;2022-08-18T04:10:10;7.65;;;5.85;;
28483;SDS011;15704;48.834;8.736;2022-08-18T04:14:00;8.02;;;6.18;;
28483;SDS011;15704;48.834;8.736;2022-08-18T04:17:44;7.47;;;5.43;;
28483;SDS011;15704;48.834;8.736;2022-08-18T04:21:44;8.30;;;6.00;;
28483;SDS011;15704;48.834;8.736;2022-08-18T04:25:26;7.40;;;5.20;;
28483;SDS011;15704;48.834;8.736;2022-08-18T04:29:15;7.75;;;5.53;;
28483;SDS011;15704;48.834;8.736;2022-08-18T04:33:02;8.65;;;5.50;;
28483;SDS011;15704;48.834;8.736;2022-08-18T04:36:45;11.02;;;5.68;;
28483;SDS011;15704;48.834;8.736;2022-08-18T04:40:35;7.80;;;5.80;;
28483;SDS011;15704;48.834;8.736;2022-08-18T04:44:19;9.63;;;5.93;;
28483;SDS011;15704;48.834;8.736;2022-08-18T04:48:02;7.35;;;5.45;;
28483;SDS011;15704;48.834;8.736;2022-08-18T04:51:46;7.30;;;6.05;;
28483;SDS011;15704;48.834;8.736;2022-08-18T04:56:17;14.32;;;6.00;;
28483;SDS011;15704;48.834;8.736;2022-08-18T05:00:07;8.05;;;5.78;;
28483;SDS011;15704;48.834;8.736;2022-08-18T05:03:52;10.48;;;5.25;;
28483;SDS011;15704;48.834;8.736;2022-08-18T05:07:35;8.80;;;4.55;;
28483;SDS011;15704;48.834;8.736;2022-08-18T05:11:18;10.48;;;4.80;;
28483;SDS011;15704;48.834;8.736;2022-08-18T05:15:02;6.35;;;4.80;;
28483;SDS011;15704;48.834;8.736;2022-08-18T05:18:47;6.00;;;4.55;;
28483;SDS011;15704;48.834;8.736;2022-08-18T05:22:35;6.90;;;5.07;;
28483;SDS011;15704;48.834;8.736;2022-08-18T05:26:18;5.40;;;4.60;;
28483;SDS011;15704;48.834;8.736;2022-08-18T05:30:01;9.70;;;4.30;;
28483;SDS011;15704;48.834;8.736;2022-08-18T05:33:46;5.32;;;4.30;;
28483;SDS011;15704;48.834;8.736;2022-08-18T05:37:32;6.15;;;4.07;;
28483;SDS011;15704;48.834;8.736;2022-08-18T05:41:21;4.88;;;3.97;;
28483;SDS011;15704;48.834;8.736;2022-08-18T05:45:11;7.35;;;4.53;;
28483;SDS011;15704;48.834;8.736;2022-08-18T05:48:57;5.97;;;4.07;;
28483;SDS011;15704;48.834;8.736;2022-08-18T05:52:41;6.50;;;4.28;;
28483;SDS011;15704;48.834;8.736;2022-08-18T05:56:28;6.40;;;3.97;;
28483;SDS011;15704;48.834;8.736;2022-08-18T06:00:26;6.63;;;4.60;;
28483;SDS011;15704;48.834;8.736;2022-08-18T06:04:15;4.68;;;3.85;;
28483;SDS011;15704;48.834;8.736;2022-08-18T06:08:08;5.13;;;4.03;;
28483;SDS011;15704;48.834;8.736;2022-08-18T06:11:53;6.63;;;4.50;;
28483;SDS011;15704;48.834;8.736;2022-08-18T06:15:46;11.00;;;4.90;;
28483;SDS011;15704;48.834;8.736;2022-08-18T06:19:37;8.68;;;4.32;;
28483;SDS011;15704;48.834;8.736;2022-08-18T06:23:30;7.60;;;4.78;;
28483;SDS011;15704;48.834;8.736;2022-08-18T06:27:18;5.50;;;4.13;;
28483;SDS011;15704;48.834;8.736;2022-08-18T06:31:14;7.72;;;4.65;;
28483;SDS011;15704;48.834;8.736;2022-08-18T06:35:05;5.55;;;4.65;;
28483;SDS011;15704;48.834;8.736;2022-08-18T06:38:59;6.07;;;4.85;;
28483;SDS011;15704;48.834;8.736;2022-08-18T06:42:46;6.35;;;5.00;;
28483;SDS011;15704;48.834;8.736;2022-08-18T06:46:31;8.10;;;4.72;;
28483;SDS011;15704;48.834;8.736;2022-08-18T06:50:24;7.10;;;5.65;;
28483;SDS011;15704;48.834;8.736;2022-08-18T06:54:24;8.50;;;4.47;;
28483;SDS011;15704;48.834;8.736;2022-08-18T06:58:18;7.25;;;5.43;;
28483;SDS011;15704;48.834;8.736;2022-08-18T07:02:13;7.80;;;5.05;;
28483;SDS011;15704;48.834;8.736;2022-08-18T07:06:03;8.70;;;5.47;;
28483;SDS011;15704;48.834;8.736;2022-08-18T07:09:48;9.27;;;6.05;;
28483;SDS011;15704;48.834;8.736;2022-08-18T07:13:36;7.18;;;5.68;;
28483;SDS011;15704;48.834;8.736;2022-08-18T07:17:23;9.98;;;5.50;;
28483;SDS011;15704;48.834;8.736;2022-08-18T07:21:26;6.90;;;5.53;;
28483;SDS011;15704;48.834;8.736;2022-08-18T07:25:10;8.18;;;6.05;;
28483;SDS011;15704;48.834;8.736;2022-08-18T07:29:11;7.78;;;6.63;;
28483;SDS011;15704;48.834;8.736;2022-08-18T07:32:56;13.57;;;7.20;;
28483;SDS011;15704;48.834;8.736;2022-08-18T07:36:45;8.55;;;6.72;;
28483;SDS011;15704;48.834;8.736;2022-08-18T07:40:32;11.57;;;6.97;;
28483;SDS011;15704;48.834;8.736;2022-08-18T07:44:24;10.52;;;6.97;;
28483;SDS011;15704;48.834;8.736;2022-08-18T07:48:24;11.85;;;7.95;;
28483;SDS011;15704;48.834;8.736;2022-08-18T07:52:23;12.25;;;8.15;;
28483;SDS011;15704;48.834;8.736;2022-08-18T07:56:31;16.30;;;8.52;;
28483;SDS011;15704;48.834;8.736;2022-08-18T08:00:20;10.85;;;7.65;;
28483;SDS011;15704;48.834;8.736;2022-08-18T08:04:29;12.98;;;7.80;;
28483;SDS011;15704;48.834;8.736;2022-08-18T08:08:30;10.27;;;8.23;;
28483;SDS011;15704;48.834;8.736;2022-08-18T08:12:22;14.90;;;8.85;;
28483;SDS011;15704;48.834;8.736;2022-08-18T08:16:12;11.70;;;8.52;;
28483;SDS011;15704;48.834;8.736;2022-08-18T08:20:08;10.65;;;8.27;;
28483;SDS011;15704;48.834;8.736;2022-08-18T08:24:02;14.10;;;8.73;;
28483;SDS011;15704;48.834;8.736;2022-08-18T08:27:59;14.00;;;9.10;;
28483;SDS011;15704;48.834;8.736;2022-08-18T08:31:52;10.95;;;8.82;;
28483;SDS011;15704;48.834;8.736;2022-08-18T08:35:40;11.50;;;8.68;;
28483;SDS011;15704;48.834;8.736;2022-08-18T08:39:34;10.68;;;8.65;;
28483;SDS011;15704;48.834;8.736;2022-08-18T08:43:22;10.07;;;8.13;;
28483;SDS011;15704;48.834;8.736;2022-08-18T08:47:09;10.82;;;8.88;;
28483;SDS011;15704;48.834;8.736;2022-08-18T08:51:05;11.63;;;8.88;;
28483;SDS011;15704;48.834;8.736;2022-08-18T08:55:13;12.77;;;8.50;;
28483;SDS011;15704;48.834;8.736;2022-08-18T08:58:59;11.02;;;8.25;;
28483;SDS011;15704;48.834;8.736;2022-08-18T09:02:55;13.07;;;8.75;;
28483;SDS011;15704;48.834;8.736;2022-08-18T09:06:49;13.73;;;9.18;;
28483;SDS011;15704;48.834;8.736;2022-08-18T09:10:44;10.32;;;7.82;;
28483;SDS011;15704;48.834;8.736;2022-08-18T09:15:01;11.70;;;8.43;;
28483;SDS011;15704;48.834;8.736;2022-08-18T09:19:24;16.30;;;8.98;;
28483;SDS011;15704;48.834;8.736;2022-08-18T09:23:25;14.70;;;10.23;;
28483;SDS011;15704;48.834;8.736;2022-08-18T09:27:15;12.48;;;9.85;;
28483;SDS011;15704;48.834;8.736;2022-08-18T09:31:32;13.43;;;9.35;;
28483;SDS011;15704;48.834;8.736;2022-08-18T09:35:23;11.52;;;8.70;;
28483;SDS011;15704;48.834;8.736;2022-08-18T09:39:19;13.20;;;9.15;;
28483;SDS011;15704;48.834;8.736;2022-08-18T09:43:56;14.52;;;10.18;;
28483;SDS011;15704;48.834;8.736;2022-08-18T09:48:21;17.17;;;10.95;;
28483;SDS011;15704;48.834;8.736;2022-08-18T09:56:56;12.40;;;9.65;;
28483;SDS011;15704;48.834;8.736;2022-08-18T10:09:15;12.30;;;9.02;;
28483;SDS011;15704;48.834;8.736;2022-08-18T10:13:17;12.43;;;10.15;;
28483;SDS011;15704;48.834;8.736;2022-08-18T10:17:10;16.00;;;11.52;;
28483;SDS011;15704;48.834;8.736;2022-08-18T10:21:08;15.85;;;11.32;;
28483;SDS011;15704;48.834;8.736;2022-08-18T10:29:04;15.75;;;11.88;;
28483;SDS011;15704;48.834;8.736;2022-08-18T10:32:49;15.32;;;11.85;;
28483;SDS011;15704;48.834;8.736;2022-08-18T10:36:36;19.92;;;12.50;;
28483;SDS011;15704;48.834;8.736;2022-08-18T10:40:23;13.70;;;10.73;;
28483;SDS011;15704;48.834;8.736;2022-08-18T10:44:08;14.98;;;11.38;;
28483;SDS011;15704;48.834;8.736;2022-08-18T10:48:12;18.35;;;12.23;;
28483;SDS011;15704;48.834;8.736;2022-08-18T10:52:10;16.90;;;12.75;;
28483;SDS011;15704;48.834;8.736;2022-08-18T10:56:28;22.48;;;12.98;;
28483;SDS011;15704;48.834;8.736;2022-08-18T11:00:16;15.35;;;10.98;;
28483;SDS011;15704;48.834;8.736;2022-08-18T11:04:04;19.27;;;12.20;;
28483;SDS011;15704;48.834;8.736;2022-08-18T11:08:17;18.25;;;12.88;;
28483;SDS011;15704;48.834;8.736;2022-08-18T11:12:02;16.45;;;10.98;;
28483;SDS011;15704;48.834;8.736;2022-08-18T11:15:48;19.02;;;11.85;;
28483;SDS011;15704;48.834;8.736;2022-08-18T11:19:43;21.75;;;12.82;;
28483;SDS011;15704;48.834;8.736;2022-08-18T11:23:30;15.55;;;11.48;;
28483;SDS011;15704;48.834;8.736;2022-08-18T11:27:16;16.45;;;13.30;;
28483;SDS011;15704;48.834;8.736;2022-08-18T11:31:03;12.45;;;10.40;;
28483;SDS011;15704;48.834;8.736;2022-08-18T11:34:48;16.67;;;9.68;;
28483;SDS011;15704;48.834;8.736;2022-08-18T11:38:33;18.50;;;11.40;;
28483;SDS011;15704;48.834;8.736;2022-08-18T11:42:25;12.77;;;9.45;;
28483;SDS011;15704;48.834;8.736;2022-08-18T11:46:11;12.30;;;9.98;;
28483;SDS011;15704;48.834;8.736;2022-08-18T11:50:05;14.60;;;8.95;;
28483;SDS011;15704;48.834;8.736;2022-08-18T11:53:51;14.57;;;9.40;;
28483;SDS011;15704;48.834;8.736;2022-08-18T11:57:40;9.48;;;7.80;;
28483;SDS011;15704;48.834;8.736;2022-08-18T12:01:33;9.50;;;7.65;;
28483;SDS011;15704;48.834;8.736;2022-08-18T12:05:23;11.95;;;6.97;;
28483;SDS011;15704;48.834;8.736;2022-08-18T12:09:06;9.25;;;7.32;;
28483;SDS011;15704;48.834;8.736;2022-08-18T12:13:21;11.32;;;8.00;;
28483;SDS011;15704;48.834;8.736;2022-08-18T12:17:06;10.45;;;7.70;;
28483;SDS011;15704;48.834;8.736;2022-08-18T12:20:52;12.18;;;7.30;;
28483;SDS011;15704;48.834;8.736;2022-08-18T12:24:35;11.60;;;7.93;;
28483;SDS011;15704;48.834;8.736;2022-08-18T12:28:19;10.57;;;6.18;;
28483;SDS011;15704;48.834;8.736;2022-08-18T12:32:08;12.15;;;7.78;;
28483;SDS011;15704;48.834;8.736;2022-08-18T12:36:12;9.88;;;7.15;;
28483;SDS011;15704;48.834;8.736;2022-08-18T12:39:59;14.00;;;6.97;;
28483;SDS011;15704;48.834;8.736;2022-08-18T12:43:42;10.18;;;6.22;;
28483;SDS011;15704;48.834;8.736;2022-08-18T12:47:39;7.38;;;5.93;;
28483;SDS011;15704;48.834;8.736;2022-08-18T12:51:24;9.90;;;6.55;;
28483;SDS011;15704;48.834;8.736;2022-08-18T12:55:27;11.38;;;6.80;;
28483;SDS011;15704;48.834;8.736;2022-08-18T12:59:12;8.80;;;6.80;;
28483;SDS011;15704;48.834;8.736;2022-08-18T13:02:57;9.07;;;6.45;;
28483;SDS011;15704;48.834;8.736;2022-08-18T13:06:43;8.95;;;6.47;;
28483;SDS011;15704;48.834;8.736;2022-08-18T13:10:41;9.50;;;6.63;;
28483;SDS011;15704;48.834;8.736;2022-08-18T13:14:26;11.68;;;7.05;;
28483;SDS011;15704;48.834;8.736;2022-08-18T13:18:10;12.63;;;8.38;;
28483;SDS011;15704;48.834;8.736;2022-08-18T13:21:56;14.40;;;7.43;;
28483;SDS011;15704;48.834;8.736;2022-08-18T13:25:39;10.93;;;7.90;;
28483;SDS011;15704;48.834;8.736;2022-08-18T13:29:26;8.52;;;6.63;;
28483;SDS011;15704;48.834;8.736;2022-08-18T13:37:12;11.23;;;6.85;;
28483;SDS011;15704;48.834;8.736;2022-08-18T13:40:56;8.73;;;6.32;;
28483;SDS011;15704;48.834;8.736;2022-08-18T13:44:39;13.32;;;6.95;;
28483;SDS011;15704;48.834;8.736;2022-08-18T13:48:33;11.63;;;6.22;;
28483;SDS011;15704;48.834;8.736;2022-08-18T13:52:17;9.82;;;6.03;;
28483;SDS011;15704;48.834;8.736;2022-08-18T13:56:14;8.63;;;6.93;;
28483;SDS011;15704;48.834;8.736;2022-08-18T13:59:59;9.25;;;6.93;;
28483;SDS011;15704;48.834;8.736;2022-08-18T14:03:44;12.73;;;6.55;;
28483;SDS011;15704;48.834;8.736;2022-08-18T14:07:29;8.30;;;6.00;;
28483;SDS011;15704;48.834;8.736;2022-08-18T14:11:15;13.25;;;6.68;;
28483;SDS011;15704;48.834;8.736;2022-08-18T14:14:58;13.15;;;7.55;;
28483;SDS011;15704;48.834;8.736;2022-08-18T14:18:41;12.52;;;6.35;;
28483;SDS011;15704;48.834;8.736;2022-08-18T14:22:25;11.18;;;5.80;;
28483;SDS011;15704;48.834;8.736;2022-08-18T14:26:27;12.27;;;6.25;;
28483;SDS011;15704;48.834;8.736;2022-08-18T14:30:30;13.27;;;6.60;;
28483;SDS011;15704;48.834;8.736;2022-08-18T14:34:13;8.88;;;6.57;;
28483;SDS011;15704;48.834;8.736;2022-08-18T14:38:07;10.80;;;5.75;;
28483;SDS011;15704;48.834;8.736;2022-08-18T14:41:53;8.82;;;5.80;;
28483;SDS011;15704;48.834;8.736;2022-08-18T14:45:36;7.72;;;6.05;;
28483;SDS011;15704;48.834;8.736;2022-08-18T14:49:19;7.55;;;5.90;;
28483;SDS011;15704;48.834;8.736;2022-08-18T14:53:08;6.03;;;5.05;;
28483;SDS011;15704;48.834;8.736;2022-08-18T14:56:56;8.00;;;5.22;;
28483;SDS011;15704;48.834;8.736;2022-08-18T15:00:39;10.40;;;5.65;;
28483;SDS011;15704;48.834;8.736;2022-08-18T15:04:33;8.75;;;5.60;;
28483;SDS011;15704;48.834;8.736;2022-08-18T15:08:32;11.65;;;5.28;;
28483;SDS011;15704;48.834;8.736;2022-08-18T15:12:16;7.32;;;5.20;;
28483;SDS011;15704;48.834;8.736;2022-08-18T15:16:00;10.77;;;5.03;;
28483;SDS011;15704;48.834;8.736;2022-08-18T15:23:40;11.20;;;5.35;;
28483;SDS011;15704;48.834;8.736;2022-08-18T15:31:32;9.82;;;5.57;;
28483;SDS011;15704;48.834;8.736;2022-08-18T15:35:31;7.20;;;5.43;;
28483;SDS011;15704;48.834;8.736;2022-08-18T15:39:18;8.40;;;6.30;;
28483;SDS011;15704;48.834;8.736;2022-08-18T15:43:05;8.57;;;6.05;;
28483;SDS011;15704;48.834;8.736;2022-08-18T15:46:50;7.78;;;5.93;;
28483;SDS011;15704;48.834;8.736;2022-08-18T15:50:35;9.35;;;5.97;;
28483;SDS011;15704;48.834;8.736;2022-08-18T15:54:18;7.43;;;5.93;;
28483;SDS011;15704;48.834;8.736;2022-08-18T15:58:02;11.25;;;6.10;;
28483;SDS011;15704;48.834;8.736;2022-08-18T16:01:53;9.60;;;5.70;;
28483;SDS011;15704;48.834;8.736;2022-08-18T16:05:37;12.73;;;6.13;;
28483;SDS011;15704;48.834;8.736;2022-08-18T16:09:21;8.35;;;6.03;;
28483;SDS011;15704;48.834;8.736;2022-08-18T16:13:04;12.07;;;5.80;;
28483;SDS011;15704;48.834;8.736;2022-08-18T16:16:48;7.13;;;5.53;;
28483;SDS011;15704;48.834;8.736;2022-08-18T16:20:32;6.78;;;5.38;;
28483;SDS011;15704;48.834;8.736;2022-08-18T16:24:15;7.32;;;6.00;;
28483;SDS011;15704;48.834;8.736;2022-08-18T16:31:40;7.32;;;5.55;;
28483;SDS011;15704;48.834;8.736;2022-08-18T16:35:24;11.38;;;6.93;;
28483;SDS011;15704;48.834;8.736;2022-08-18T16:39:08;8.35;;;7.05;;
28483;SDS011;15704;48.834;8.736;2022-08-18T16:42:53;13.85;;;6.93;;
28483;SDS011;15704;48.834;8.736;2022-08-18T16:46:35;10.65;;;7.70;;
28483;SDS011;15704;48.834;8.736;2022-08-18T16:50:18;18.52;;;12.23;;
28483;SDS011;15704;48.834;8.736;2022-08-18T16:54:02;15.27;;;11.00;;
28483;SDS011;15704;48.834;8.736;2022-08-18T16:57:47;16.25;;;12.13;;
28483;SDS011;15704;48.834;8.736;2022-08-18T17:02:00;20.58;;;13.45;;
28483;SDS011;15704;48.834;8.736;2022-08-18T17:06:18;18.35;;;12.80;;
28483;SDS011;15704;48.834;8.736;2022-08-18T17:13:47;16.38;;;13.82;;
28483;SDS011;15704;48.834;8.736;2022-08-18T17:17:31;18.75;;;13.95;;
28483;SDS011;15704;48.834;8.736;2022-08-18T17:21:16;22.83;;;16.08;;
28483;SDS011;15704;48.834;8.736;2022-08-18T17:25:00;21.25;;;16.73;;
28483;SDS011;15704;48.834;8.736;2022-08-18T17:28:44;27.42;;;18.05;;
28483;SDS011;15704;48.834;8.736;2022-08-18T17:32:36;21.40;;;16.73;;
28483;SDS011;15704;48.834;8.736;2022-08-18T17:36:27;21.75;;;16.98;;
28483;SDS011;15704;48.834;8.736;2022-08-18T17:40:16;23.85;;;16.77;;
28483;SDS011;15704;48.834;8.736;2022-08-18T17:44:03;22.10;;;15.60;;
28483;SDS011;15704;48.834;8.736;2022-08-18T17:47:49;31.27;;;17.05;;
28483;SDS011;15704;48.834;8.736;2022-08-18T17:51:40;24.83;;;15.25;;
28483;SDS011;15704;48.834;8.736;2022-08-18T17:55:29;20.05;;;14.88;;
28483;SDS011;15704;48.834;8.736;2022-08-18T17:59:19;16.88;;;13.30;;
28483;SDS011;15704;48.834;8.736;2022-08-18T18:03:27;18.92;;;13.45;;
28483;SDS011;15704;48.834;8.736;2022-08-18T18:07:20;16.42;;;12.15;;
28483;SDS011;15704;48.834;8.736;2022-08-18T18:11:08;19.35;;;12.20;;
28483;SDS011;15704;48.834;8.736;2022-08-18T18:14:54;15.30;;;10.82;;
28483;SDS011;15704;48.834;8.736;2022-08-18T18:18:38;14.30;;;10.95;;
28483;SDS011;15704;48.834;8.736;2022-08-18T18:22:24;14.18;;;10.30;;
28483;SDS011;15704;48.834;8.736;2022-08-18T18:26:17;13.88;;;10.15;;
28483;SDS011;15704;48.834;8.736;2022-08-18T18:30:17;13.85;;;10.52;;
28483;SDS011;15704;48.834;8.736;2022-08-18T18:34:15;14.32;;;10.95;;
28483;SDS011;15704;48.834;8.736;2022-08-18T18:38:22;16.02;;;10.57;;
28483;SDS011;15704;48.834;8.736;2022-08-18T18:42:09;13.18;;;9.90;;
28483;SDS011;15704;48.834;8.736;2022-08-18T18:46:06;14.05;;;10.73;;
28483;SDS011;15704;48.834;8.736;2022-08-18T18:50:15;16.27;;;11.00;;
28483;SDS011;15704;48.834;8.736;2022-08-18T18:54:08;15.40;;;10.85;;
28483;SDS011;15704;48.834;8.736;2022-08-18T18:58:04;13.18;;;10.73;;
28483;SDS011;15704;48.834;8.736;2022-08-18T19:01:55;17.00;;;11.63;;
28483;SDS011;15704;48.834;8.736;2022-08-18T19:05:57;18.63;;;11.77;;
28483;SDS011;15704;48.834;8.736;2022-08-18T19:09:56;14.45;;;10.68;;
28483;SDS011;15704;48.834;8.736;2022-08-18T19:13:44;15.32;;;11.40;;
28483;SDS011;15704;48.834;8.736;2022-08-18T19:17:37;13.48;;;10.00;;
28483;SDS011;15704;48.834;8.736;2022-08-18T19:21:22;15.60;;;10.68;;
28483;SDS011;15704;48.834;8.736;2022-08-18T19:25:28;15.60;;;11.15;;
28483;SDS011;15704;48.834;8.736;2022-08-18T19:29:15;14.05;;;10.48;;
28483;SDS011;15704;48.834;8.736;2022-08-18T19:33:04;15.68;;;10.98;;
28483;SDS011;15704;48.834;8.736;2022-08-18T19:36:50;20.30;;;10.90;;
28483;SDS011;15704;48.834;8.736;2022-08-18T19:40:43;14.43;;;10.35;;
28483;SDS011;15704;48.834;8.736;2022-08-18T19:44:33;15.73;;;11.10;;
28483;SDS011;15704;48.834;8.736;2022-08-18T19:48:42;15.18;;;12.13;;
28483;SDS011;15704;48.834;8.736;2022-08-18T19:52:38;16.90;;;11.85;;
28483;SDS011;15704;48.834;8.736;2022-08-18T19:56:39;15.90;;;11.32;;
28483;SDS011;15704;48.834;8.736;2022-08-18T20:00:37;16.88;;;11.55;;
28483;SDS011;15704;48.834;8.736;2022-08-18T20:04:34;16.98;;;11.55;;
28483;SDS011;15704;48.834;8.736;2022-08-18T20:12:51;14.50;;;11.10;;
28483;SDS011;15704;48.834;8.736;2022-08-18T20:25:36;19.88;;;14.05;;
28483;SDS011;15704;48.834;8.736;2022-08-18T20:33:28;17.48;;;11.95;;
28483;SDS011;15704;48.834;8.736;2022-08-18T20:37:17;15.70;;;12.32;;
28483;SDS011;15704;48.834;8.736;2022-08-18T20:41:31;23.52;;;12.23;;
28483;SDS011;15704;48.834;8.736;2022-08-18T20:45:25;17.85;;;13.18;;
28483;SDS011;15704;48.834;8.736;2022-08-18T20:49:11;24.70;;;13.23;;
28483;SDS011;15704;48.834;8.736;2022-08-18T20:53:08;22.17;;;12.50;;
28483;SDS011;15704;48.834;8.736;2022-08-18T20:57:03;19.40;;;13.93;;
28483;SDS011;15704;48.834;8.736;2022-08-18T21:00:51;21.95;;;13.20;;
28483;SDS011;15704;48.834;8.736;2022-08-18T21:04:43;19.10;;;14.45;;
28483;SDS011;15704;48.834;8.736;2022-08-18T21:08:28;25.98;;;13.43;;
28483;SDS011;15704;48.834;8.736;2022-08-18T21:12:19;19.30;;;13.70;;
28483;SDS011;15704;48.834;8.736;2022-08-18T21:16:04;17.73;;;13.45;;
28483;SDS011;15704;48.834;8.736;2022-08-18T21:19:46;22.40;;;14.05;;
28483;SDS011;15704;48.834;8.736;2022-08-18T21:23:31;21.40;;;12.73;;
28483;SDS011;15704;48.834;8.736;2022-08-18T21:27:18;23.83;;;12.50;;
28483;SDS011;15704;48.834;8.736;2022-08-18T21:31:06;17.50;;;12.40;;
28483;SDS011;15704;48.834;8.736;2022-08-18T21:35:26;22.08;;;12.70;;
28483;SDS011;15704;48.834;8.736;2022-08-18T21:39:13;18.45;;;11.82;;
28483;SDS011;15704;48.834;8.736;2022-08-18T21:42:58;19.00;;;12.63;;
28483;SDS011;15704;48.834;8.736;2022-08-18T21:46:44;17.55;;;12.30;;
28483;SDS011;15704;48.834;8.736;2022-08-18T21:50:32;19.13;;;12.48;;
28483;SDS011;15704;48.834;8.736;2022-08-18T21:54:15;17.73;;;11.70;;
28483;SDS011;15704;48.834;8.736;2022-08-18T21:58:05;20.38;;;11.38;;
28483;SDS011;15704;48.834;8.736;2022-08-18T22:01:57;17.75;;;11.82;;
28483;SDS011;15704;48.834;8.736;2022-08-18T22:05:41;19.77;;;13.05;;
28483;SDS011;15704;48.834;8.736;2022-08-18T22:13:58;16.80;;;12.48;;
28483;SDS011;15704;48.834;8.736;2022-08-18T22:17:56;22.98;;;12.20;;
28483;SDS011;15704;48.834;8.736;2022-08-18T22:21:40;18.85;;;12.40;;
28483;SDS011;15704;48.834;8.736;2022-08-18T22:25:26;18.80;;;12.40;;
28483;SDS011;15704;48.834;8.736;2022-08-18T22:29:11;17.63;;;11.70;;
28483;SDS011;15704;48.834;8.736;2022-08-18T22:33:02;21.58;;;12.38;;
28483;SDS011;15704;48.834;8.736;2022-08-18T22:52:55;19.05;;;13.13;;
28483;SDS011;15704;48.834;8.736;2022-08-18T22:56:38;19.67;;;13.57;;
28483;SDS011;15704;48.834;8.736;2022-08-18T23:00:36;24.00;;;14.25;;
28483;SDS011;15704;48.834;8.736;2022-08-18T23:04:22;21.38;;;14.20;;
28483;SDS011;15704;48.834;8.736;2022-08-18T23:08:06;24.35;;;15.15;;
28483;SDS011;15704;48.834;8.736;2022-08-18T23:11:50;26.50;;;14.80;;
28483;SDS011;15704;48.834;8.736;2022-08-18T23:15:33;25.52;;;15.95;;
28483;SDS011;15704;48.834;8.736;2022-08-18T23:19:23;23.23;;;15.73;;
28483;SDS011;15704;48.834;8.736;2022-08-18T23:23:08;25.27;;;15.57;;
28483;SDS011;15704;48.834;8.736;2022-08-18T23:26:51;35.47;;;16.52;;
28483;SDS011;15704;48.834;8.736;2022-08-18T23:30:35;24.65;;;16.00;;
28483;SDS011;15704;48.834;8.736;2022-08-18T23:34:18;24.23;;;16.20;;
28483;SDS011;15704;48.834;8.736;2022-08-18T23:38:03;24.38;;;16.17;;
28483;SDS011;15704;48.834;8.736;2022-08-18T23:41:50;23.40;;;15.48;;
28483;SDS011;15704;48.834;8.736;2022-08-18T23:45:35;23.02;;;15.80;;
28483;SDS011;15704;48.834;8.736;2022-08-18T23:49:19;26.20;;;16.48;;
28483;SDS011;15704;48.834;8.736;2022-08-18T23:53:03;28.67;;;15.95;;
28483;SDS011;15704;48.834;8.736;2022-08-18T23:56:46;27.83;;;16.48;;
